N2528E MMCL-MMZH
Flight info
| Callsign | N2528E |
|---|---|
| Flight time | 3h 31m |
| Altitude | 7000 |
| Route | CUL1A CUL V3 MZT V1 ZLO V1 ZIH |
| Aircraft | M20P/L-VGD/C |
Departure
| Time | 2026-04-28 14:11 |
|---|---|
| Airport | Bachigualato Federal International Airport (MMCL) |
Arrival
| Time | 2026-04-28 17:42 |
|---|---|
| Airport | Ixtapa-Zihuatanejo International Airport (MMZH) |
| Time | Latitude | Longitude | Altitude | Speed | Heading |
|---|---|---|---|---|---|
| 2026-04-28 14:03 | 24.75954 | -107.47500 | 103 ft | 0 kts | 300° |
| 2026-04-28 14:08 | 24.75961 | -107.47507 | 103 ft | 6 kts | 338° |
| 2026-04-28 14:08 | 24.76019 | -107.47522 | 103 ft | 9 kts | 311° |
| 2026-04-28 14:09 | 24.76051 | -107.47583 | 103 ft | 10 kts | 301° |
| 2026-04-28 14:09 | 24.76090 | -107.47648 | 103 ft | 10 kts | 308° |
| 2026-04-28 14:09 | 24.76130 | -107.47707 | 103 ft | 9 kts | 304° |
| 2026-04-28 14:09 | 24.76168 | -107.47746 | 103 ft | 7 kts | 355° |
| 2026-04-28 14:10 | 24.76259 | -107.47690 | 104 ft | 33 kts | 33° |
| 2026-04-28 14:10 | 24.76578 | -107.47471 | 105 ft | 73 kts | 32° |
| 2026-04-28 14:10 | 24.77077 | -107.47143 | 175 ft | 91 kts | 26° |
| 2026-04-28 14:10 | 24.77627 | -107.46847 | 432 ft | 87 kts | 25° |
| 2026-04-28 14:11 | 24.78209 | -107.46487 | 549 ft | 102 kts | 29° |
| 2026-04-28 14:11 | 24.78857 | -107.46105 | 788 ft | 108 kts | 24° |
| 2026-04-28 14:11 | 24.79561 | -107.45742 | 1038 ft | 114 kts | 25° |
| 2026-04-28 14:11 | 24.80280 | -107.45365 | 1291 ft | 117 kts | 25° |
| 2026-04-28 14:12 | 24.81030 | -107.44970 | 1547 ft | 121 kts | 25° |
| 2026-04-28 14:12 | 24.81793 | -107.44558 | 1802 ft | 124 kts | 26° |
| 2026-04-28 14:12 | 24.82564 | -107.44117 | 2054 ft | 126 kts | 27° |
| 2026-04-28 14:12 | 24.83343 | -107.43671 | 2311 ft | 127 kts | 27° |
| 2026-04-28 14:13 | 24.84134 | -107.43216 | 2559 ft | 129 kts | 27° |
| 2026-04-28 14:13 | 24.84891 | -107.42700 | 2747 ft | 128 kts | 35° |
| 2026-04-28 14:13 | 24.85613 | -107.42136 | 2989 ft | 125 kts | 34° |
| 2026-04-28 14:13 | 24.86262 | -107.41533 | 3212 ft | 122 kts | 55° |
| 2026-04-28 14:14 | 24.86707 | -107.40726 | 3448 ft | 122 kts | 56° |
| 2026-04-28 14:14 | 24.86922 | -107.39862 | 3667 ft | 121 kts | 98° |
| 2026-04-28 14:14 | 24.86502 | -107.39080 | 3896 ft | 120 kts | 141° |
| 2026-04-28 14:14 | 24.85729 | -107.38832 | 4122 ft | 118 kts | 186° |
| 2026-04-28 14:15 | 24.85018 | -107.39231 | 4360 ft | 114 kts | 225° |
| 2026-04-28 14:15 | 24.84446 | -107.39827 | 4600 ft | 111 kts | 222° |
| 2026-04-28 14:15 | 24.83882 | -107.40389 | 4832 ft | 108 kts | 223° |
| 2026-04-28 14:15 | 24.83333 | -107.40934 | 5061 ft | 105 kts | 222° |
| 2026-04-28 14:16 | 24.82792 | -107.41469 | 5290 ft | 103 kts | 222° |
| 2026-04-28 14:16 | 24.82275 | -107.41979 | 5515 ft | 98 kts | 222° |
| 2026-04-28 14:16 | 24.81775 | -107.42471 | 5738 ft | 93 kts | 222° |
| 2026-04-28 14:16 | 24.81300 | -107.42938 | 5932 ft | 90 kts | 222° |
| 2026-04-28 14:17 | 24.80837 | -107.43395 | 6092 ft | 90 kts | 222° |
| 2026-04-28 14:17 | 24.80355 | -107.43872 | 6220 ft | 95 kts | 223° |
| 2026-04-28 14:17 | 24.79854 | -107.44369 | 6355 ft | 100 kts | 222° |
| 2026-04-28 14:17 | 24.79322 | -107.44893 | 6484 ft | 105 kts | 223° |
| 2026-04-28 14:18 | 24.78772 | -107.45437 | 6617 ft | 110 kts | 222° |
| 2026-04-28 14:18 | 24.78189 | -107.46013 | 6744 ft | 114 kts | 222° |
| 2026-04-28 14:18 | 24.77584 | -107.46610 | 6856 ft | 121 kts | 222° |
| 2026-04-28 14:18 | 24.76923 | -107.47243 | 6938 ft | 130 kts | 216° |
| 2026-04-28 14:19 | 24.76044 | -107.47463 | 7010 ft | 138 kts | 171° |
| 2026-04-28 14:19 | 24.75164 | -107.46944 | 7010 ft | 150 kts | 141° |
| 2026-04-28 14:19 | 24.74332 | -107.46186 | 7014 ft | 158 kts | 142° |
| 2026-04-28 14:19 | 24.73439 | -107.45445 | 7009 ft | 164 kts | 144° |
| 2026-04-28 14:20 | 24.72496 | -107.44713 | 7007 ft | 168 kts | 146° |
| 2026-04-28 14:20 | 24.71536 | -107.43980 | 7007 ft | 170 kts | 146° |
| 2026-04-28 14:20 | 24.70552 | -107.43230 | 7008 ft | 171 kts | 146° |
| 2026-04-28 14:20 | 24.69579 | -107.42487 | 7008 ft | 172 kts | 146° |
| 2026-04-28 14:21 | 24.68588 | -107.41731 | 7010 ft | 173 kts | 146° |
| 2026-04-28 14:21 | 24.67606 | -107.40981 | 7005 ft | 173 kts | 146° |
| 2026-04-28 14:21 | 24.66623 | -107.40232 | 7008 ft | 173 kts | 146° |
| 2026-04-28 14:21 | 24.65624 | -107.39469 | 7003 ft | 174 kts | 146° |
| 2026-04-28 14:22 | 24.64623 | -107.38706 | 7004 ft | 174 kts | 146° |
| 2026-04-28 14:22 | 24.63633 | -107.37951 | 7006 ft | 175 kts | 146° |
| 2026-04-28 14:22 | 24.62628 | -107.37185 | 7004 ft | 175 kts | 146° |
| 2026-04-28 14:22 | 24.61637 | -107.36429 | 7002 ft | 175 kts | 146° |
| 2026-04-28 14:23 | 24.60644 | -107.35672 | 7002 ft | 174 kts | 146° |
| 2026-04-28 14:23 | 24.59640 | -107.34908 | 7004 ft | 175 kts | 146° |
| 2026-04-28 14:23 | 24.58643 | -107.34148 | 7007 ft | 175 kts | 146° |
| 2026-04-28 14:23 | 24.57648 | -107.33391 | 7006 ft | 175 kts | 145° |
| 2026-04-28 14:24 | 24.56642 | -107.32624 | 7007 ft | 175 kts | 145° |
| 2026-04-28 14:24 | 24.55650 | -107.31869 | 7009 ft | 175 kts | 146° |
| 2026-04-28 14:24 | 24.54654 | -107.31111 | 7002 ft | 175 kts | 146° |
| 2026-04-28 14:24 | 24.53648 | -107.30345 | 7001 ft | 175 kts | 145° |
| 2026-04-28 14:25 | 24.52658 | -107.29592 | 7004 ft | 175 kts | 145° |
| 2026-04-28 14:25 | 24.51651 | -107.28825 | 7001 ft | 174 kts | 145° |
| 2026-04-28 14:25 | 24.50659 | -107.28071 | 6998 ft | 175 kts | 145° |
| 2026-04-28 14:25 | 24.49652 | -107.27306 | 7002 ft | 174 kts | 146° |
| 2026-04-28 14:26 | 24.48665 | -107.26555 | 7004 ft | 175 kts | 145° |
| 2026-04-28 14:26 | 24.47654 | -107.25786 | 7002 ft | 175 kts | 145° |
| 2026-04-28 14:26 | 24.46663 | -107.25034 | 7007 ft | 174 kts | 145° |
| 2026-04-28 14:26 | 24.45663 | -107.24274 | 7000 ft | 174 kts | 145° |
| 2026-04-28 14:27 | 24.44670 | -107.23519 | 6999 ft | 174 kts | 145° |
| 2026-04-28 14:27 | 24.43669 | -107.22759 | 6999 ft | 174 kts | 145° |
| 2026-04-28 14:27 | 24.42680 | -107.22008 | 7003 ft | 174 kts | 145° |
| 2026-04-28 14:27 | 24.41689 | -107.21256 | 6998 ft | 174 kts | 145° |
| 2026-04-28 14:28 | 24.40686 | -107.20496 | 6999 ft | 174 kts | 145° |
| 2026-04-28 14:28 | 24.39693 | -107.19743 | 6998 ft | 174 kts | 146° |
| 2026-04-28 14:28 | 24.38691 | -107.18983 | 7002 ft | 174 kts | 145° |
| 2026-04-28 14:28 | 24.37693 | -107.18227 | 6997 ft | 175 kts | 145° |
| 2026-04-28 14:29 | 24.36700 | -107.17474 | 6994 ft | 175 kts | 145° |
| 2026-04-28 14:29 | 24.36034 | -107.16970 | 6998 ft | 175 kts | 145° |
| 2026-04-28 14:29 | 24.35034 | -107.16213 | 6999 ft | 175 kts | 145° |
| 2026-04-28 14:29 | 24.34034 | -107.15455 | 6998 ft | 175 kts | 145° |
| 2026-04-28 14:30 | 24.33029 | -107.14694 | 7001 ft | 175 kts | 145° |
| 2026-04-28 14:30 | 24.32023 | -107.13932 | 6997 ft | 175 kts | 145° |
| 2026-04-28 14:30 | 24.31027 | -107.13179 | 6999 ft | 175 kts | 145° |
| 2026-04-28 14:30 | 24.30027 | -107.12423 | 6999 ft | 175 kts | 145° |
| 2026-04-28 14:31 | 24.29019 | -107.11659 | 6998 ft | 175 kts | 145° |
| 2026-04-28 14:31 | 24.28026 | -107.10908 | 6999 ft | 175 kts | 145° |
| 2026-04-28 14:31 | 24.27015 | -107.10144 | 6999 ft | 175 kts | 145° |
| 2026-04-28 14:31 | 24.26021 | -107.09393 | 6998 ft | 175 kts | 145° |
| 2026-04-28 14:32 | 24.25016 | -107.08633 | 6995 ft | 175 kts | 145° |
| 2026-04-28 14:32 | 24.24021 | -107.07881 | 6995 ft | 175 kts | 145° |
| 2026-04-28 14:32 | 24.23018 | -107.07123 | 6995 ft | 175 kts | 145° |
| 2026-04-28 14:32 | 24.22017 | -107.06367 | 7002 ft | 175 kts | 145° |
| 2026-04-28 14:33 | 24.21023 | -107.05616 | 7003 ft | 175 kts | 145° |
| 2026-04-28 14:33 | 24.20023 | -107.04860 | 6996 ft | 175 kts | 145° |
| 2026-04-28 14:33 | 24.19007 | -107.04093 | 6999 ft | 175 kts | 145° |
| 2026-04-28 14:33 | 24.18011 | -107.03341 | 6998 ft | 175 kts | 145° |
| 2026-04-28 14:34 | 24.15996 | -107.01820 | 6994 ft | 175 kts | 145° |
| 2026-04-28 14:34 | 24.14999 | -107.01069 | 6993 ft | 175 kts | 145° |
| 2026-04-28 14:34 | 24.13990 | -107.00307 | 6996 ft | 175 kts | 145° |
| 2026-04-28 14:35 | 24.12989 | -106.99552 | 6995 ft | 175 kts | 145° |
| 2026-04-28 14:35 | 24.11980 | -106.98792 | 6994 ft | 175 kts | 145° |
| 2026-04-28 14:35 | 24.10983 | -106.98039 | 6997 ft | 175 kts | 145° |
| 2026-04-28 14:35 | 24.09974 | -106.97279 | 6996 ft | 175 kts | 145° |
| 2026-04-28 14:36 | 24.08980 | -106.96530 | 6995 ft | 175 kts | 145° |
| 2026-04-28 14:36 | 24.07970 | -106.95770 | 6994 ft | 176 kts | 145° |
| 2026-04-28 14:36 | 24.06958 | -106.95007 | 6993 ft | 176 kts | 145° |
| 2026-04-28 14:36 | 24.05955 | -106.94251 | 6996 ft | 175 kts | 145° |
| 2026-04-28 14:37 | 24.04958 | -106.93501 | 6997 ft | 176 kts | 145° |
| 2026-04-28 14:37 | 24.03942 | -106.92735 | 6997 ft | 176 kts | 145° |
| 2026-04-28 14:37 | 24.02942 | -106.91984 | 6994 ft | 176 kts | 145° |
| 2026-04-28 14:37 | 24.01943 | -106.91231 | 6993 ft | 175 kts | 145° |
| 2026-04-28 14:38 | 24.00932 | -106.90470 | 6996 ft | 175 kts | 145° |
| 2026-04-28 14:38 | 23.99921 | -106.89710 | 6991 ft | 175 kts | 145° |
| 2026-04-28 14:38 | 23.98924 | -106.88960 | 6992 ft | 175 kts | 145° |
| 2026-04-28 14:38 | 23.97912 | -106.88199 | 6995 ft | 175 kts | 145° |
| 2026-04-28 14:39 | 23.96910 | -106.87446 | 6997 ft | 176 kts | 145° |
| 2026-04-28 14:39 | 23.95908 | -106.86692 | 6995 ft | 175 kts | 145° |
| 2026-04-28 14:39 | 23.94897 | -106.85932 | 6994 ft | 175 kts | 145° |
| 2026-04-28 14:39 | 23.93895 | -106.85179 | 6998 ft | 175 kts | 145° |
| 2026-04-28 14:40 | 23.92894 | -106.84426 | 6997 ft | 176 kts | 145° |
| 2026-04-28 14:40 | 23.92213 | -106.83914 | 6994 ft | 176 kts | 145° |
| 2026-04-28 14:40 | 23.90871 | -106.82906 | 6997 ft | 175 kts | 145° |
| 2026-04-28 14:40 | 23.89876 | -106.82158 | 6995 ft | 175 kts | 145° |
| 2026-04-28 14:41 | 23.88859 | -106.81394 | 6996 ft | 176 kts | 145° |
| 2026-04-28 14:41 | 23.87855 | -106.80639 | 6995 ft | 176 kts | 145° |
| 2026-04-28 14:41 | 23.86845 | -106.79882 | 6995 ft | 176 kts | 145° |
| 2026-04-28 14:41 | 23.85844 | -106.79130 | 6994 ft | 176 kts | 145° |
| 2026-04-28 14:42 | 23.84830 | -106.78369 | 6992 ft | 176 kts | 145° |
| 2026-04-28 14:42 | 23.83832 | -106.77620 | 6992 ft | 176 kts | 146° |
| 2026-04-28 14:42 | 23.82816 | -106.76858 | 6996 ft | 175 kts | 145° |
| 2026-04-28 14:42 | 23.81822 | -106.76112 | 7001 ft | 175 kts | 146° |
| 2026-04-28 14:43 | 23.80811 | -106.75354 | 6995 ft | 175 kts | 146° |
| 2026-04-28 14:43 | 23.79809 | -106.74602 | 6995 ft | 175 kts | 146° |
| 2026-04-28 14:43 | 23.78801 | -106.73846 | 6998 ft | 175 kts | 146° |
| 2026-04-28 14:43 | 23.77803 | -106.73098 | 6994 ft | 176 kts | 146° |
| 2026-04-28 14:44 | 23.76790 | -106.72339 | 6998 ft | 176 kts | 146° |
| 2026-04-28 14:44 | 23.75783 | -106.71584 | 6996 ft | 176 kts | 146° |
| 2026-04-28 14:44 | 23.74785 | -106.70837 | 6994 ft | 176 kts | 146° |
| 2026-04-28 14:44 | 23.73768 | -106.70075 | 6991 ft | 176 kts | 146° |
| 2026-04-28 14:45 | 23.72766 | -106.69324 | 6997 ft | 176 kts | 146° |
| 2026-04-28 14:45 | 23.71764 | -106.68574 | 6990 ft | 175 kts | 146° |
| 2026-04-28 14:45 | 23.70750 | -106.67815 | 6990 ft | 175 kts | 146° |
| 2026-04-28 14:45 | 23.69752 | -106.67068 | 6991 ft | 175 kts | 146° |
| 2026-04-28 14:46 | 23.68739 | -106.66310 | 6990 ft | 175 kts | 146° |
| 2026-04-28 14:46 | 23.67746 | -106.65567 | 6994 ft | 175 kts | 146° |
| 2026-04-28 14:46 | 23.66735 | -106.64811 | 6991 ft | 175 kts | 146° |
| 2026-04-28 14:46 | 23.65738 | -106.64065 | 6993 ft | 175 kts | 146° |
| 2026-04-28 14:47 | 23.64734 | -106.63315 | 6994 ft | 175 kts | 146° |
| 2026-04-28 14:47 | 23.63721 | -106.62557 | 6993 ft | 175 kts | 146° |
| 2026-04-28 14:47 | 23.62722 | -106.61811 | 6992 ft | 175 kts | 146° |
| 2026-04-28 14:47 | 23.61724 | -106.61064 | 6992 ft | 175 kts | 146° |
| 2026-04-28 14:48 | 23.60712 | -106.60308 | 6992 ft | 175 kts | 146° |
| 2026-04-28 14:48 | 23.59708 | -106.59558 | 6994 ft | 175 kts | 146° |
| 2026-04-28 14:48 | 23.58706 | -106.58810 | 6991 ft | 175 kts | 146° |
| 2026-04-28 14:48 | 23.57708 | -106.58065 | 6989 ft | 175 kts | 146° |
| 2026-04-28 14:49 | 23.56695 | -106.57308 | 6990 ft | 175 kts | 146° |
| 2026-04-28 14:49 | 23.55693 | -106.56561 | 6991 ft | 175 kts | 146° |
| 2026-04-28 14:49 | 23.54693 | -106.55815 | 6993 ft | 175 kts | 146° |
| 2026-04-28 14:49 | 23.53694 | -106.55070 | 6989 ft | 175 kts | 146° |
| 2026-04-28 14:50 | 23.52688 | -106.54319 | 6990 ft | 175 kts | 146° |
| 2026-04-28 14:50 | 23.51677 | -106.53565 | 6994 ft | 175 kts | 146° |
| 2026-04-28 14:50 | 23.50676 | -106.52820 | 6993 ft | 175 kts | 146° |
| 2026-04-28 14:50 | 23.49657 | -106.52061 | 6989 ft | 176 kts | 146° |
| 2026-04-28 14:51 | 23.48656 | -106.51314 | 6990 ft | 175 kts | 146° |
| 2026-04-28 14:51 | 23.47653 | -106.50568 | 6988 ft | 175 kts | 146° |
| 2026-04-28 14:51 | 23.46642 | -106.49815 | 6991 ft | 176 kts | 146° |
| 2026-04-28 14:51 | 23.45633 | -106.49062 | 6990 ft | 176 kts | 146° |
| 2026-04-28 14:52 | 23.44618 | -106.48307 | 6994 ft | 176 kts | 146° |
| 2026-04-28 14:52 | 23.43610 | -106.47557 | 6993 ft | 177 kts | 146° |
| 2026-04-28 14:52 | 23.42598 | -106.46804 | 6989 ft | 177 kts | 146° |
| 2026-04-28 14:52 | 23.41575 | -106.46042 | 6992 ft | 177 kts | 146° |
| 2026-04-28 14:53 | 23.40566 | -106.45292 | 6991 ft | 177 kts | 146° |
| 2026-04-28 14:53 | 23.39549 | -106.44534 | 6993 ft | 178 kts | 146° |
| 2026-04-28 14:53 | 23.38521 | -106.43770 | 6995 ft | 177 kts | 146° |
| 2026-04-28 14:53 | 23.37498 | -106.43010 | 6990 ft | 177 kts | 146° |
| 2026-04-28 14:54 | 23.36487 | -106.42258 | 6992 ft | 177 kts | 146° |
| 2026-04-28 14:54 | 23.35463 | -106.41496 | 6993 ft | 177 kts | 146° |
| 2026-04-28 14:54 | 23.34450 | -106.40745 | 6989 ft | 179 kts | 146° |
| 2026-04-28 14:54 | 23.33421 | -106.39980 | 6985 ft | 177 kts | 146° |
| 2026-04-28 14:55 | 23.32409 | -106.39227 | 6984 ft | 179 kts | 146° |
| 2026-04-28 14:55 | 23.31367 | -106.38455 | 6992 ft | 181 kts | 146° |
| 2026-04-28 14:55 | 23.30331 | -106.37685 | 6990 ft | 180 kts | 146° |
| 2026-04-28 14:55 | 23.29299 | -106.36918 | 6986 ft | 180 kts | 146° |
| 2026-04-28 14:56 | 23.28270 | -106.36155 | 6985 ft | 180 kts | 146° |
| 2026-04-28 14:56 | 23.27227 | -106.35381 | 6992 ft | 181 kts | 146° |
| 2026-04-28 14:56 | 23.26184 | -106.34607 | 6991 ft | 184 kts | 146° |
| 2026-04-28 14:56 | 23.25120 | -106.33818 | 6985 ft | 182 kts | 146° |
| 2026-04-28 14:57 | 23.24075 | -106.33043 | 6988 ft | 186 kts | 147° |
| 2026-04-28 14:57 | 23.23364 | -106.32516 | 6976 ft | 185 kts | 146° |
| 2026-04-28 14:57 | 23.21964 | -106.31475 | 6987 ft | 182 kts | 147° |
| 2026-04-28 14:57 | 23.20908 | -106.30696 | 6980 ft | 182 kts | 146° |
| 2026-04-28 14:58 | 23.19871 | -106.29926 | 6983 ft | 182 kts | 146° |
| 2026-04-28 14:58 | 23.18826 | -106.29151 | 6979 ft | 182 kts | 146° |
| 2026-04-28 14:58 | 23.17783 | -106.28379 | 6977 ft | 180 kts | 146° |
| 2026-04-28 14:58 | 23.16746 | -106.27610 | 6975 ft | 179 kts | 146° |
| 2026-04-28 14:59 | 23.15685 | -106.26917 | 6968 ft | 177 kts | 158° |
| 2026-04-28 14:59 | 23.14538 | -106.26442 | 6975 ft | 178 kts | 161° |
| 2026-04-28 14:59 | 23.13392 | -106.25966 | 6982 ft | 178 kts | 160° |
| 2026-04-28 14:59 | 23.12234 | -106.25472 | 6986 ft | 178 kts | 160° |
| 2026-04-28 15:00 | 23.11084 | -106.24981 | 6973 ft | 178 kts | 160° |
| 2026-04-28 15:00 | 23.09927 | -106.24487 | 6974 ft | 177 kts | 160° |
| 2026-04-28 15:00 | 23.08788 | -106.24003 | 6974 ft | 176 kts | 160° |
| 2026-04-28 15:00 | 23.07654 | -106.23520 | 6978 ft | 176 kts | 160° |
| 2026-04-28 15:01 | 23.06513 | -106.23035 | 6978 ft | 175 kts | 160° |
| 2026-04-28 15:01 | 23.05389 | -106.22557 | 6974 ft | 175 kts | 160° |
| 2026-04-28 15:01 | 23.04252 | -106.22074 | 6984 ft | 175 kts | 160° |
| 2026-04-28 15:01 | 23.03126 | -106.21595 | 6981 ft | 175 kts | 160° |
| 2026-04-28 15:02 | 23.01987 | -106.21110 | 6974 ft | 175 kts | 160° |
| 2026-04-28 15:02 | 23.00865 | -106.20633 | 6979 ft | 174 kts | 160° |
| 2026-04-28 15:02 | 22.99730 | -106.20151 | 6975 ft | 174 kts | 160° |
| 2026-04-28 15:02 | 22.98598 | -106.19670 | 6979 ft | 174 kts | 160° |
| 2026-04-28 15:03 | 22.97479 | -106.19195 | 6980 ft | 174 kts | 160° |
| 2026-04-28 15:03 | 22.96360 | -106.18720 | 6977 ft | 174 kts | 160° |
| 2026-04-28 15:03 | 22.95227 | -106.18239 | 6978 ft | 174 kts | 160° |
| 2026-04-28 15:03 | 22.94110 | -106.17764 | 6979 ft | 174 kts | 160° |
| 2026-04-28 15:04 | 22.92978 | -106.17284 | 6975 ft | 174 kts | 160° |
| 2026-04-28 15:04 | 22.91857 | -106.16808 | 6975 ft | 174 kts | 160° |
| 2026-04-28 15:04 | 22.90735 | -106.16332 | 6983 ft | 174 kts | 160° |
| 2026-04-28 15:04 | 22.89602 | -106.15851 | 6979 ft | 174 kts | 160° |
| 2026-04-28 15:05 | 22.88484 | -106.15377 | 6981 ft | 173 kts | 160° |
| 2026-04-28 15:05 | 22.87364 | -106.14902 | 6979 ft | 174 kts | 160° |
| 2026-04-28 15:05 | 22.86230 | -106.14421 | 6978 ft | 174 kts | 160° |
| 2026-04-28 15:05 | 22.85115 | -106.13948 | 6978 ft | 173 kts | 160° |
| 2026-04-28 15:06 | 22.83983 | -106.13468 | 6979 ft | 174 kts | 160° |
| 2026-04-28 15:06 | 22.82867 | -106.12995 | 6975 ft | 173 kts | 160° |
| 2026-04-28 15:06 | 22.81741 | -106.12518 | 6979 ft | 173 kts | 160° |
| 2026-04-28 15:06 | 22.80610 | -106.12039 | 6987 ft | 174 kts | 160° |
| 2026-04-28 15:07 | 22.79491 | -106.11565 | 6975 ft | 174 kts | 160° |
| 2026-04-28 15:07 | 22.78355 | -106.11084 | 6977 ft | 174 kts | 160° |
| 2026-04-28 15:07 | 22.77230 | -106.10607 | 6979 ft | 174 kts | 160° |
| 2026-04-28 15:07 | 22.76110 | -106.10133 | 6979 ft | 174 kts | 160° |
| 2026-04-28 15:08 | 22.74990 | -106.09659 | 6976 ft | 173 kts | 160° |
| 2026-04-28 15:08 | 22.73857 | -106.09179 | 6977 ft | 173 kts | 160° |
| 2026-04-28 15:08 | 22.72743 | -106.08708 | 6977 ft | 173 kts | 160° |
| 2026-04-28 15:08 | 22.71622 | -106.08234 | 6982 ft | 174 kts | 160° |
| 2026-04-28 15:09 | 22.70494 | -106.07756 | 6979 ft | 174 kts | 160° |
| 2026-04-28 15:09 | 22.69358 | -106.07277 | 6983 ft | 174 kts | 160° |
| 2026-04-28 15:09 | 22.68239 | -106.06803 | 6977 ft | 173 kts | 160° |
| 2026-04-28 15:09 | 22.67491 | -106.06487 | 6982 ft | 173 kts | 160° |
| 2026-04-28 15:10 | 22.66000 | -106.05857 | 6979 ft | 174 kts | 160° |
| 2026-04-28 15:10 | 22.64866 | -106.05378 | 6980 ft | 173 kts | 160° |
| 2026-04-28 15:10 | 22.63746 | -106.04905 | 6978 ft | 174 kts | 160° |
| 2026-04-28 15:10 | 22.62615 | -106.04427 | 6976 ft | 174 kts | 160° |
| 2026-04-28 15:11 | 22.61497 | -106.03955 | 6978 ft | 173 kts | 160° |
| 2026-04-28 15:11 | 22.60379 | -106.03484 | 6981 ft | 174 kts | 160° |
| 2026-04-28 15:11 | 22.59246 | -106.03005 | 6977 ft | 173 kts | 160° |
| 2026-04-28 15:11 | 22.58131 | -106.02534 | 6979 ft | 174 kts | 160° |
| 2026-04-28 15:12 | 22.56995 | -106.02055 | 6975 ft | 174 kts | 160° |
| 2026-04-28 15:12 | 22.55882 | -106.01586 | 6980 ft | 174 kts | 160° |
| 2026-04-28 15:12 | 22.54750 | -106.01108 | 6976 ft | 174 kts | 160° |
| 2026-04-28 15:12 | 22.53627 | -106.00634 | 6977 ft | 174 kts | 160° |
| 2026-04-28 15:13 | 22.52492 | -106.00156 | 6976 ft | 174 kts | 160° |
| 2026-04-28 15:13 | 22.51370 | -105.99683 | 6976 ft | 173 kts | 160° |
| 2026-04-28 15:13 | 22.50246 | -105.99209 | 6975 ft | 173 kts | 160° |
| 2026-04-28 15:13 | 22.49493 | -105.98892 | 6980 ft | 174 kts | 160° |
| 2026-04-28 15:14 | 22.48000 | -105.98263 | 6977 ft | 174 kts | 160° |
| 2026-04-28 15:14 | 22.47248 | -105.97946 | 6979 ft | 174 kts | 160° |
| 2026-04-28 15:14 | 22.46109 | -105.97466 | 6979 ft | 174 kts | 160° |
| 2026-04-28 15:14 | 22.44984 | -105.96992 | 6980 ft | 174 kts | 160° |
| 2026-04-28 15:15 | 22.43852 | -105.96516 | 6979 ft | 174 kts | 160° |
| 2026-04-28 15:15 | 22.42726 | -105.96042 | 6977 ft | 174 kts | 160° |
| 2026-04-28 15:15 | 22.41604 | -105.95569 | 6976 ft | 174 kts | 160° |
| 2026-04-28 15:15 | 22.40467 | -105.95091 | 6978 ft | 174 kts | 160° |
| 2026-04-28 15:16 | 22.39340 | -105.94616 | 6978 ft | 174 kts | 160° |
| 2026-04-28 15:16 | 22.38218 | -105.94145 | 6975 ft | 174 kts | 160° |
| 2026-04-28 15:16 | 22.37083 | -105.93667 | 6975 ft | 174 kts | 160° |
| 2026-04-28 15:16 | 22.35961 | -105.93195 | 6978 ft | 174 kts | 160° |
| 2026-04-28 15:17 | 22.34838 | -105.92723 | 6976 ft | 174 kts | 160° |
| 2026-04-28 15:17 | 22.33703 | -105.92246 | 6974 ft | 174 kts | 160° |
| 2026-04-28 15:17 | 22.32583 | -105.91775 | 6977 ft | 174 kts | 160° |
| 2026-04-28 15:17 | 22.31448 | -105.91298 | 6975 ft | 174 kts | 160° |
| 2026-04-28 15:18 | 22.30327 | -105.90827 | 6976 ft | 174 kts | 160° |
| 2026-04-28 15:18 | 22.29193 | -105.90351 | 6973 ft | 174 kts | 160° |
| 2026-04-28 15:18 | 22.28063 | -105.89876 | 6976 ft | 174 kts | 160° |
| 2026-04-28 15:18 | 22.26932 | -105.89401 | 6975 ft | 174 kts | 160° |
| 2026-04-28 15:19 | 22.25813 | -105.88931 | 6978 ft | 174 kts | 160° |
| 2026-04-28 15:19 | 22.24674 | -105.88453 | 6977 ft | 174 kts | 160° |
| 2026-04-28 15:19 | 22.23547 | -105.87979 | 6977 ft | 174 kts | 160° |
| 2026-04-28 15:19 | 22.22422 | -105.87508 | 6976 ft | 174 kts | 160° |
| 2026-04-28 15:20 | 22.21294 | -105.87034 | 6975 ft | 174 kts | 160° |
| 2026-04-28 15:20 | 22.20166 | -105.86561 | 6978 ft | 174 kts | 160° |
| 2026-04-28 15:20 | 22.19024 | -105.86082 | 6975 ft | 174 kts | 160° |
| 2026-04-28 15:20 | 22.17907 | -105.85613 | 6971 ft | 174 kts | 160° |
| 2026-04-28 15:21 | 22.16768 | -105.85136 | 6978 ft | 174 kts | 160° |
| 2026-04-28 15:21 | 22.15631 | -105.84659 | 6973 ft | 174 kts | 160° |
| 2026-04-28 15:21 | 22.14508 | -105.84188 | 6974 ft | 174 kts | 160° |
| 2026-04-28 15:21 | 22.13375 | -105.83713 | 6978 ft | 174 kts | 160° |
| 2026-04-28 15:22 | 22.12247 | -105.83241 | 6974 ft | 174 kts | 160° |
| 2026-04-28 15:22 | 22.11122 | -105.82770 | 6974 ft | 175 kts | 160° |
| 2026-04-28 15:22 | 22.09974 | -105.82289 | 6973 ft | 175 kts | 160° |
| 2026-04-28 15:22 | 22.08845 | -105.81815 | 6968 ft | 175 kts | 160° |
| 2026-04-28 15:23 | 22.07715 | -105.81342 | 6977 ft | 175 kts | 160° |
| 2026-04-28 15:23 | 22.06585 | -105.80869 | 6981 ft | 175 kts | 160° |
| 2026-04-28 15:23 | 22.05442 | -105.80391 | 6972 ft | 175 kts | 160° |
| 2026-04-28 15:23 | 22.04316 | -105.79920 | 6978 ft | 174 kts | 160° |
| 2026-04-28 15:24 | 22.03178 | -105.79443 | 6977 ft | 174 kts | 160° |
| 2026-04-28 15:24 | 22.02054 | -105.78973 | 6975 ft | 175 kts | 160° |
| 2026-04-28 15:24 | 22.00913 | -105.78496 | 6975 ft | 175 kts | 160° |
| 2026-04-28 15:24 | 21.99788 | -105.78026 | 6976 ft | 175 kts | 160° |
| 2026-04-28 15:25 | 21.98648 | -105.77549 | 6977 ft | 174 kts | 160° |
| 2026-04-28 15:25 | 21.97522 | -105.77078 | 6979 ft | 174 kts | 160° |
| 2026-04-28 15:25 | 21.96397 | -105.76608 | 6973 ft | 174 kts | 160° |
| 2026-04-28 15:25 | 21.95257 | -105.76131 | 6975 ft | 174 kts | 160° |
| 2026-04-28 15:26 | 21.94133 | -105.75661 | 6978 ft | 174 kts | 160° |
| 2026-04-28 15:26 | 21.93007 | -105.75191 | 6976 ft | 175 kts | 160° |
| 2026-04-28 15:26 | 21.91862 | -105.74713 | 6977 ft | 175 kts | 160° |
| 2026-04-28 15:26 | 21.90735 | -105.74242 | 6971 ft | 175 kts | 160° |
| 2026-04-28 15:27 | 21.89610 | -105.73772 | 6976 ft | 174 kts | 160° |
| 2026-04-28 15:27 | 21.88473 | -105.73297 | 6976 ft | 174 kts | 160° |
| 2026-04-28 15:27 | 21.87336 | -105.72822 | 6972 ft | 175 kts | 160° |
| 2026-04-28 15:27 | 21.86212 | -105.72354 | 6976 ft | 175 kts | 160° |
| 2026-04-28 15:28 | 21.85068 | -105.71876 | 6977 ft | 175 kts | 160° |
| 2026-04-28 15:28 | 21.83940 | -105.71405 | 6974 ft | 175 kts | 160° |
| 2026-04-28 15:28 | 21.82809 | -105.70934 | 6978 ft | 175 kts | 160° |
| 2026-04-28 15:28 | 21.81664 | -105.70456 | 6971 ft | 175 kts | 160° |
| 2026-04-28 15:29 | 21.80540 | -105.69988 | 6973 ft | 175 kts | 160° |
| 2026-04-28 15:29 | 21.79402 | -105.69513 | 6975 ft | 175 kts | 160° |
| 2026-04-28 15:29 | 21.78280 | -105.69045 | 6976 ft | 175 kts | 160° |
| 2026-04-28 15:29 | 21.77138 | -105.68569 | 6973 ft | 175 kts | 160° |
| 2026-04-28 15:30 | 21.75999 | -105.68094 | 6976 ft | 175 kts | 160° |
| 2026-04-28 15:30 | 21.74865 | -105.67622 | 6971 ft | 175 kts | 160° |
| 2026-04-28 15:30 | 21.73739 | -105.67153 | 6971 ft | 175 kts | 160° |
| 2026-04-28 15:30 | 21.72598 | -105.66678 | 6974 ft | 175 kts | 160° |
| 2026-04-28 15:31 | 21.71458 | -105.66203 | 6972 ft | 175 kts | 160° |
| 2026-04-28 15:31 | 21.70337 | -105.65736 | 6972 ft | 175 kts | 160° |
| 2026-04-28 15:31 | 21.69189 | -105.65259 | 6973 ft | 175 kts | 160° |
| 2026-04-28 15:31 | 21.68064 | -105.64790 | 6970 ft | 175 kts | 160° |
| 2026-04-28 15:32 | 21.66925 | -105.64317 | 6971 ft | 175 kts | 160° |
| 2026-04-28 15:32 | 21.65784 | -105.63842 | 6974 ft | 175 kts | 160° |
| 2026-04-28 15:32 | 21.64657 | -105.63373 | 6974 ft | 175 kts | 160° |
| 2026-04-28 15:32 | 21.63513 | -105.62897 | 6973 ft | 175 kts | 160° |
| 2026-04-28 15:33 | 21.62385 | -105.62428 | 6973 ft | 175 kts | 160° |
| 2026-04-28 15:33 | 21.61257 | -105.61959 | 6971 ft | 175 kts | 160° |
| 2026-04-28 15:33 | 21.60107 | -105.61481 | 6968 ft | 175 kts | 160° |
| 2026-04-28 15:33 | 21.58976 | -105.61011 | 6971 ft | 175 kts | 160° |
| 2026-04-28 15:34 | 21.57827 | -105.60534 | 6975 ft | 175 kts | 160° |
| 2026-04-28 15:34 | 21.56694 | -105.60063 | 6976 ft | 175 kts | 160° |
| 2026-04-28 15:34 | 21.55561 | -105.59592 | 6970 ft | 175 kts | 159° |
| 2026-04-28 15:34 | 21.54418 | -105.59116 | 6977 ft | 176 kts | 160° |
| 2026-04-28 15:35 | 21.53281 | -105.58644 | 6972 ft | 176 kts | 160° |
| 2026-04-28 15:35 | 21.50990 | -105.57692 | 6977 ft | 176 kts | 160° |
| 2026-04-28 15:35 | 21.49857 | -105.57222 | 6970 ft | 176 kts | 160° |
| 2026-04-28 15:36 | 21.48721 | -105.56749 | 6971 ft | 176 kts | 159° |
| 2026-04-28 15:36 | 21.47582 | -105.56277 | 6971 ft | 176 kts | 159° |
| 2026-04-28 15:36 | 21.46437 | -105.55801 | 6968 ft | 176 kts | 159° |
| 2026-04-28 15:36 | 21.45289 | -105.55325 | 6971 ft | 176 kts | 159° |
| 2026-04-28 15:37 | 21.44157 | -105.54855 | 6974 ft | 176 kts | 159° |
| 2026-04-28 15:37 | 21.43005 | -105.54377 | 6971 ft | 176 kts | 159° |
| 2026-04-28 15:37 | 21.41867 | -105.53905 | 6970 ft | 176 kts | 159° |
| 2026-04-28 15:37 | 21.41111 | -105.53591 | 6973 ft | 176 kts | 159° |
| 2026-04-28 15:38 | 21.39583 | -105.52957 | 6975 ft | 176 kts | 159° |
| 2026-04-28 15:38 | 21.38452 | -105.52489 | 6973 ft | 176 kts | 159° |
| 2026-04-28 15:38 | 21.37302 | -105.52012 | 6976 ft | 176 kts | 159° |
| 2026-04-28 15:38 | 21.36166 | -105.51540 | 6973 ft | 176 kts | 159° |
| 2026-04-28 15:39 | 21.35024 | -105.51067 | 6970 ft | 176 kts | 159° |
| 2026-04-28 15:39 | 21.33874 | -105.50591 | 6974 ft | 176 kts | 159° |
| 2026-04-28 15:39 | 21.32727 | -105.50116 | 6972 ft | 176 kts | 159° |
| 2026-04-28 15:39 | 21.31590 | -105.49645 | 6969 ft | 176 kts | 159° |
| 2026-04-28 15:40 | 21.30438 | -105.49167 | 6975 ft | 176 kts | 159° |
| 2026-04-28 15:40 | 21.29296 | -105.48695 | 6970 ft | 176 kts | 159° |
| 2026-04-28 15:40 | 21.28155 | -105.48222 | 6976 ft | 176 kts | 159° |
| 2026-04-28 15:40 | 21.27016 | -105.47750 | 6969 ft | 176 kts | 159° |
| 2026-04-28 15:41 | 21.25865 | -105.47274 | 6977 ft | 176 kts | 159° |
| 2026-04-28 15:41 | 21.24731 | -105.46805 | 6992 ft | 175 kts | 159° |
| 2026-04-28 15:41 | 21.23592 | -105.46334 | 6994 ft | 175 kts | 159° |
| 2026-04-28 15:41 | 21.22449 | -105.45861 | 6993 ft | 176 kts | 159° |
| 2026-04-28 15:42 | 21.21317 | -105.45392 | 6994 ft | 176 kts | 159° |
| 2026-04-28 15:42 | 21.20168 | -105.44917 | 6992 ft | 176 kts | 159° |
| 2026-04-28 15:42 | 21.19032 | -105.44448 | 6992 ft | 176 kts | 159° |
| 2026-04-28 15:42 | 21.17881 | -105.43972 | 6992 ft | 176 kts | 159° |
| 2026-04-28 15:43 | 21.16742 | -105.43501 | 6989 ft | 176 kts | 159° |
| 2026-04-28 15:43 | 21.15612 | -105.43034 | 7084 ft | 170 kts | 159° |
| 2026-04-28 15:43 | 21.14528 | -105.42586 | 7176 ft | 166 kts | 159° |
| 2026-04-28 15:43 | 21.13451 | -105.42141 | 7263 ft | 164 kts | 159° |
| 2026-04-28 15:44 | 21.12402 | -105.41707 | 7356 ft | 161 kts | 159° |
| 2026-04-28 15:44 | 21.11356 | -105.41275 | 7440 ft | 159 kts | 159° |
| 2026-04-28 15:44 | 21.10333 | -105.40852 | 7530 ft | 158 kts | 160° |
| 2026-04-28 15:44 | 21.09307 | -105.40429 | 7622 ft | 156 kts | 160° |
| 2026-04-28 15:45 | 21.08303 | -105.40014 | 7714 ft | 155 kts | 160° |
| 2026-04-28 15:45 | 21.07295 | -105.39598 | 7805 ft | 154 kts | 160° |
| 2026-04-28 15:45 | 21.06303 | -105.39189 | 7897 ft | 153 kts | 160° |
| 2026-04-28 15:45 | 21.05315 | -105.38781 | 7990 ft | 152 kts | 160° |
| 2026-04-28 15:46 | 21.04337 | -105.38377 | 8079 ft | 151 kts | 160° |
| 2026-04-28 15:46 | 21.03354 | -105.37972 | 8173 ft | 150 kts | 160° |
| 2026-04-28 15:46 | 21.02385 | -105.37572 | 8274 ft | 149 kts | 160° |
| 2026-04-28 15:46 | 21.01428 | -105.37177 | 8367 ft | 148 kts | 160° |
| 2026-04-28 15:47 | 21.00458 | -105.36777 | 8464 ft | 147 kts | 160° |
| 2026-04-28 15:47 | 20.99504 | -105.36384 | 8560 ft | 147 kts | 160° |
| 2026-04-28 15:47 | 20.98553 | -105.35993 | 8657 ft | 146 kts | 160° |
| 2026-04-28 15:47 | 20.97610 | -105.35604 | 8751 ft | 146 kts | 160° |
| 2026-04-28 15:48 | 20.96660 | -105.35213 | 8849 ft | 145 kts | 161° |
| 2026-04-28 15:48 | 20.95726 | -105.34830 | 8946 ft | 145 kts | 160° |
| 2026-04-28 15:48 | 20.94788 | -105.34443 | 9043 ft | 144 kts | 160° |
| 2026-04-28 15:48 | 20.93860 | -105.34061 | 9139 ft | 143 kts | 161° |
| 2026-04-28 15:49 | 20.92929 | -105.33678 | 9238 ft | 143 kts | 161° |
| 2026-04-28 15:49 | 20.91994 | -105.33293 | 9336 ft | 142 kts | 161° |
| 2026-04-28 15:49 | 20.91078 | -105.32916 | 9438 ft | 142 kts | 161° |
| 2026-04-28 15:49 | 20.90159 | -105.32539 | 9535 ft | 141 kts | 161° |
| 2026-04-28 15:50 | 20.89246 | -105.32163 | 9646 ft | 142 kts | 161° |
| 2026-04-28 15:50 | 20.88324 | -105.31784 | 9738 ft | 142 kts | 161° |
| 2026-04-28 15:50 | 20.87392 | -105.31401 | 9841 ft | 142 kts | 161° |
| 2026-04-28 15:50 | 20.86475 | -105.31024 | 9933 ft | 142 kts | 161° |
| 2026-04-28 15:51 | 20.85560 | -105.30648 | 10021 ft | 141 kts | 161° |
| 2026-04-28 15:51 | 20.84634 | -105.30268 | 10115 ft | 141 kts | 160° |
| 2026-04-28 15:51 | 20.83728 | -105.29894 | 10201 ft | 139 kts | 161° |
| 2026-04-28 15:51 | 20.82828 | -105.29525 | 10292 ft | 138 kts | 160° |
| 2026-04-28 15:52 | 20.81941 | -105.29161 | 10382 ft | 137 kts | 160° |
| 2026-04-28 15:52 | 20.81049 | -105.28794 | 10473 ft | 136 kts | 160° |
| 2026-04-28 15:52 | 20.80171 | -105.28434 | 10564 ft | 135 kts | 160° |
| 2026-04-28 15:52 | 20.79298 | -105.28075 | 10655 ft | 134 kts | 160° |
| 2026-04-28 15:53 | 20.78436 | -105.27721 | 10745 ft | 133 kts | 160° |
| 2026-04-28 15:53 | 20.77569 | -105.27366 | 10834 ft | 132 kts | 160° |
| 2026-04-28 15:53 | 20.76715 | -105.27015 | 10929 ft | 132 kts | 160° |
| 2026-04-28 15:53 | 20.75862 | -105.26665 | 11016 ft | 131 kts | 160° |
| 2026-04-28 15:54 | 20.74995 | -105.26310 | 11017 ft | 137 kts | 160° |
| 2026-04-28 15:54 | 20.74091 | -105.25938 | 11020 ft | 142 kts | 160° |
| 2026-04-28 15:54 | 20.73144 | -105.25551 | 11003 ft | 147 kts | 160° |
| 2026-04-28 15:54 | 20.72183 | -105.25156 | 11006 ft | 151 kts | 159° |
| 2026-04-28 15:55 | 20.71187 | -105.24748 | 11010 ft | 154 kts | 159° |
| 2026-04-28 15:55 | 20.70180 | -105.24335 | 11010 ft | 157 kts | 159° |
| 2026-04-28 15:55 | 20.69150 | -105.23908 | 11006 ft | 159 kts | 158° |
| 2026-04-28 15:55 | 20.68131 | -105.23428 | 11007 ft | 160 kts | 159° |
| 2026-04-28 15:56 | 20.67099 | -105.23002 | 11008 ft | 161 kts | 159° |
| 2026-04-28 15:56 | 20.66063 | -105.22559 | 11007 ft | 162 kts | 158° |
| 2026-04-28 15:56 | 20.65013 | -105.22102 | 11009 ft | 162 kts | 158° |
| 2026-04-28 15:56 | 20.63969 | -105.21645 | 11009 ft | 163 kts | 158° |
| 2026-04-28 15:57 | 20.62914 | -105.21184 | 11006 ft | 163 kts | 158° |
| 2026-04-28 15:57 | 20.61875 | -105.20729 | 11010 ft | 164 kts | 158° |
| 2026-04-28 15:57 | 20.61171 | -105.20422 | 11007 ft | 165 kts | 158° |
| 2026-04-28 15:57 | 20.59760 | -105.19805 | 11006 ft | 165 kts | 158° |
| 2026-04-28 15:58 | 20.59040 | -105.19491 | 11004 ft | 165 kts | 158° |
| 2026-04-28 15:58 | 20.57630 | -105.18874 | 11006 ft | 166 kts | 158° |
| 2026-04-28 15:58 | 20.56921 | -105.18564 | 11005 ft | 166 kts | 158° |
| 2026-04-28 15:58 | 20.55838 | -105.18092 | 11000 ft | 168 kts | 158° |
| 2026-04-28 15:59 | 20.54760 | -105.17620 | 11005 ft | 167 kts | 158° |
| 2026-04-28 15:59 | 20.53693 | -105.17154 | 11008 ft | 167 kts | 158° |
| 2026-04-28 15:59 | 20.52624 | -105.16688 | 11004 ft | 167 kts | 158° |
| 2026-04-28 15:59 | 20.51551 | -105.16219 | 10999 ft | 165 kts | 158° |
| 2026-04-28 16:00 | 20.50484 | -105.15754 | 11006 ft | 164 kts | 158° |
| 2026-04-28 16:00 | 20.49437 | -105.15296 | 11514 ft | 165 kts | 158° |
| 2026-04-28 16:00 | 20.48341 | -105.14818 | 11387 ft | 174 kts | 159° |
| 2026-04-28 16:00 | 20.47199 | -105.14321 | 11268 ft | 180 kts | 158° |
| 2026-04-28 16:01 | 20.46031 | -105.13811 | 11149 ft | 184 kts | 158° |
| 2026-04-28 16:01 | 20.44832 | -105.13288 | 11033 ft | 186 kts | 158° |
| 2026-04-28 16:01 | 20.43650 | -105.12773 | 11019 ft | 183 kts | 158° |
| 2026-04-28 16:01 | 20.42472 | -105.12258 | 11020 ft | 180 kts | 158° |
| 2026-04-28 16:02 | 20.41324 | -105.11758 | 11016 ft | 178 kts | 159° |
| 2026-04-28 16:02 | 20.40174 | -105.11257 | 11013 ft | 177 kts | 158° |
| 2026-04-28 16:02 | 20.39044 | -105.10765 | 11013 ft | 176 kts | 159° |
| 2026-04-28 16:02 | 20.37909 | -105.10270 | 11011 ft | 175 kts | 158° |
| 2026-04-28 16:03 | 20.36771 | -105.09774 | 11011 ft | 175 kts | 158° |
| 2026-04-28 16:03 | 20.35649 | -105.09286 | 11011 ft | 176 kts | 158° |
| 2026-04-28 16:03 | 20.34510 | -105.08789 | 11010 ft | 176 kts | 159° |
| 2026-04-28 16:03 | 20.33385 | -105.08299 | 11010 ft | 175 kts | 159° |
| 2026-04-28 16:04 | 20.32253 | -105.07807 | 11009 ft | 175 kts | 158° |
| 2026-04-28 16:04 | 20.31132 | -105.07319 | 11009 ft | 175 kts | 158° |
| 2026-04-28 16:04 | 20.29995 | -105.06823 | 11010 ft | 175 kts | 158° |
| 2026-04-28 16:04 | 20.28875 | -105.06336 | 11010 ft | 175 kts | 158° |
| 2026-04-28 16:05 | 20.27743 | -105.05843 | 11010 ft | 175 kts | 158° |
| 2026-04-28 16:05 | 20.26608 | -105.05348 | 11009 ft | 175 kts | 159° |
| 2026-04-28 16:05 | 20.25486 | -105.04860 | 11010 ft | 175 kts | 158° |
| 2026-04-28 16:05 | 20.24367 | -105.04374 | 11009 ft | 175 kts | 159° |
| 2026-04-28 16:06 | 20.23238 | -105.03882 | 11009 ft | 175 kts | 159° |
| 2026-04-28 16:06 | 20.22117 | -105.03395 | 11008 ft | 175 kts | 158° |
| 2026-04-28 16:06 | 20.20983 | -105.02901 | 11009 ft | 175 kts | 158° |
| 2026-04-28 16:06 | 20.19863 | -105.02415 | 11009 ft | 175 kts | 158° |
| 2026-04-28 16:07 | 20.18735 | -105.01924 | 11009 ft | 175 kts | 159° |
| 2026-04-28 16:07 | 20.17614 | -105.01437 | 11009 ft | 175 kts | 158° |
| 2026-04-28 16:07 | 20.15354 | -105.00455 | 11009 ft | 175 kts | 159° |
| 2026-04-28 16:08 | 20.14238 | -104.99969 | 11008 ft | 174 kts | 158° |
| 2026-04-28 16:08 | 20.13105 | -104.99477 | 11008 ft | 175 kts | 159° |
| 2026-04-28 16:08 | 20.11988 | -104.98992 | 11009 ft | 174 kts | 158° |
| 2026-04-28 16:09 | 20.09736 | -104.98013 | 11008 ft | 174 kts | 159° |
| 2026-04-28 16:09 | 20.08629 | -104.97533 | 11007 ft | 174 kts | 159° |
| 2026-04-28 16:09 | 20.07504 | -104.97045 | 11008 ft | 174 kts | 159° |
| 2026-04-28 16:10 | 20.05261 | -104.96071 | 11008 ft | 174 kts | 159° |
| 2026-04-28 16:10 | 20.04140 | -104.95585 | 11008 ft | 174 kts | 158° |
| 2026-04-28 16:10 | 20.01882 | -104.94605 | 11008 ft | 175 kts | 159° |
| 2026-04-28 16:11 | 19.99637 | -104.93631 | 11008 ft | 174 kts | 159° |
| 2026-04-28 16:11 | 19.97394 | -104.92659 | 11008 ft | 174 kts | 159° |
| 2026-04-28 16:12 | 19.95150 | -104.91686 | 11008 ft | 174 kts | 159° |
| 2026-04-28 16:12 | 19.94035 | -104.91203 | 11007 ft | 174 kts | 159° |
| 2026-04-28 16:13 | 19.91788 | -104.90229 | 11008 ft | 174 kts | 159° |
| 2026-04-28 16:13 | 19.90675 | -104.89748 | 11008 ft | 174 kts | 159° |
| 2026-04-28 16:13 | 19.88423 | -104.88774 | 11009 ft | 175 kts | 158° |
| 2026-04-28 16:14 | 19.86169 | -104.87799 | 11010 ft | 175 kts | 159° |
| 2026-04-28 16:14 | 19.83914 | -104.86823 | 11010 ft | 175 kts | 159° |
| 2026-04-28 16:15 | 19.81656 | -104.85847 | 11009 ft | 175 kts | 159° |
| 2026-04-28 16:15 | 19.80537 | -104.85363 | 11008 ft | 174 kts | 159° |
| 2026-04-28 16:15 | 19.79404 | -104.84874 | 11008 ft | 174 kts | 159° |
| 2026-04-28 16:16 | 19.77158 | -104.83904 | 11010 ft | 174 kts | 159° |
| 2026-04-28 16:16 | 19.76043 | -104.83422 | 11008 ft | 174 kts | 159° |
| 2026-04-28 16:17 | 19.73772 | -104.82442 | 11008 ft | 175 kts | 159° |
| 2026-04-28 16:17 | 19.72649 | -104.81956 | 11009 ft | 175 kts | 159° |
| 2026-04-28 16:17 | 19.71526 | -104.81472 | 11011 ft | 176 kts | 159° |
| 2026-04-28 16:17 | 19.70386 | -104.80980 | 11009 ft | 176 kts | 159° |
| 2026-04-28 16:18 | 19.69260 | -104.80493 | 11010 ft | 176 kts | 159° |
| 2026-04-28 16:18 | 19.68119 | -104.80002 | 11012 ft | 176 kts | 159° |
| 2026-04-28 16:18 | 19.66990 | -104.79514 | 11009 ft | 176 kts | 159° |
| 2026-04-28 16:18 | 19.65849 | -104.79022 | 11010 ft | 176 kts | 159° |
| 2026-04-28 16:19 | 19.64725 | -104.78537 | 11009 ft | 175 kts | 159° |
| 2026-04-28 16:19 | 19.63602 | -104.78053 | 11010 ft | 175 kts | 159° |
| 2026-04-28 16:19 | 19.62463 | -104.77562 | 11011 ft | 175 kts | 159° |
| 2026-04-28 16:19 | 19.61334 | -104.77076 | 11008 ft | 175 kts | 159° |
| 2026-04-28 16:20 | 19.60208 | -104.76590 | 11012 ft | 175 kts | 159° |
| 2026-04-28 16:20 | 19.59072 | -104.76100 | 11011 ft | 176 kts | 159° |
| 2026-04-28 16:20 | 19.57941 | -104.75613 | 11012 ft | 176 kts | 159° |
| 2026-04-28 16:20 | 19.56797 | -104.75120 | 11011 ft | 176 kts | 159° |
| 2026-04-28 16:21 | 19.55673 | -104.74636 | 11009 ft | 176 kts | 159° |
| 2026-04-28 16:21 | 19.54536 | -104.74146 | 11010 ft | 176 kts | 159° |
| 2026-04-28 16:21 | 19.53402 | -104.73658 | 11010 ft | 176 kts | 159° |
| 2026-04-28 16:21 | 19.52269 | -104.73170 | 11010 ft | 176 kts | 159° |
| 2026-04-28 16:22 | 19.51142 | -104.72684 | 11010 ft | 175 kts | 159° |
| 2026-04-28 16:22 | 19.50022 | -104.72202 | 11011 ft | 175 kts | 159° |
| 2026-04-28 16:22 | 19.48884 | -104.71713 | 11010 ft | 175 kts | 159° |
| 2026-04-28 16:22 | 19.47761 | -104.71229 | 11011 ft | 175 kts | 159° |
| 2026-04-28 16:23 | 19.46625 | -104.70741 | 11008 ft | 175 kts | 159° |
| 2026-04-28 16:23 | 19.45502 | -104.70257 | 11011 ft | 175 kts | 159° |
| 2026-04-28 16:23 | 19.44367 | -104.69769 | 11010 ft | 176 kts | 159° |
| 2026-04-28 16:23 | 19.43228 | -104.69279 | 11011 ft | 176 kts | 159° |
| 2026-04-28 16:24 | 19.42108 | -104.68798 | 11011 ft | 175 kts | 159° |
| 2026-04-28 16:24 | 19.40982 | -104.68313 | 11011 ft | 175 kts | 159° |
| 2026-04-28 16:24 | 19.39840 | -104.67822 | 11011 ft | 175 kts | 159° |
| 2026-04-28 16:24 | 19.38715 | -104.67340 | 11007 ft | 175 kts | 159° |
| 2026-04-28 16:25 | 19.37581 | -104.66851 | 11009 ft | 175 kts | 159° |
| 2026-04-28 16:25 | 19.36459 | -104.66370 | 11011 ft | 175 kts | 159° |
| 2026-04-28 16:25 | 19.35322 | -104.65881 | 11007 ft | 176 kts | 159° |
| 2026-04-28 16:25 | 19.34188 | -104.65393 | 11010 ft | 175 kts | 159° |
| 2026-04-28 16:26 | 19.33063 | -104.64911 | 11011 ft | 176 kts | 159° |
| 2026-04-28 16:26 | 19.31938 | -104.64428 | 11009 ft | 175 kts | 159° |
| 2026-04-28 16:26 | 19.30800 | -104.63940 | 11011 ft | 175 kts | 159° |
| 2026-04-28 16:26 | 19.29671 | -104.63454 | 11011 ft | 175 kts | 159° |
| 2026-04-28 16:27 | 19.28545 | -104.62971 | 11011 ft | 176 kts | 159° |
| 2026-04-28 16:27 | 19.27419 | -104.62487 | 11010 ft | 176 kts | 159° |
| 2026-04-28 16:27 | 19.25148 | -104.61514 | 11013 ft | 176 kts | 159° |
| 2026-04-28 16:28 | 19.24001 | -104.61021 | 11011 ft | 176 kts | 159° |
| 2026-04-28 16:28 | 19.23257 | -104.60702 | 11010 ft | 176 kts | 159° |
| 2026-04-28 16:28 | 19.21742 | -104.60052 | 11014 ft | 177 kts | 159° |
| 2026-04-28 16:28 | 19.20597 | -104.59562 | 11014 ft | 177 kts | 159° |
| 2026-04-28 16:29 | 19.18314 | -104.58583 | 11015 ft | 177 kts | 159° |
| 2026-04-28 16:29 | 19.16032 | -104.57605 | 11012 ft | 177 kts | 159° |
| 2026-04-28 16:30 | 19.14954 | -104.56980 | 11005 ft | 177 kts | 138° |
| 2026-04-28 16:30 | 19.14272 | -104.55886 | 11007 ft | 179 kts | 117° |
| 2026-04-28 16:30 | 19.13745 | -104.54704 | 11006 ft | 178 kts | 116° |
| 2026-04-28 16:30 | 19.13192 | -104.53535 | 11006 ft | 177 kts | 118° |
| 2026-04-28 16:31 | 19.12627 | -104.52376 | 11006 ft | 177 kts | 118° |
| 2026-04-28 16:31 | 19.12068 | -104.51231 | 11006 ft | 177 kts | 118° |
| 2026-04-28 16:31 | 19.11502 | -104.50069 | 11006 ft | 176 kts | 118° |
| 2026-04-28 16:31 | 19.10944 | -104.48923 | 11006 ft | 176 kts | 118° |
| 2026-04-28 16:32 | 19.10382 | -104.47772 | 11006 ft | 176 kts | 118° |
| 2026-04-28 16:32 | 19.09263 | -104.45475 | 11006 ft | 176 kts | 118° |
| 2026-04-28 16:32 | 19.08699 | -104.44320 | 11007 ft | 176 kts | 118° |
| 2026-04-28 16:33 | 19.08141 | -104.43174 | 11006 ft | 176 kts | 118° |
| 2026-04-28 16:33 | 19.07949 | -104.42782 | 11006 ft | 176 kts | 118° |
| 2026-04-28 16:33 | 19.07018 | -104.40873 | 11006 ft | 176 kts | 118° |
| 2026-04-28 16:33 | 19.06459 | -104.39729 | 11006 ft | 176 kts | 118° |
| 2026-04-28 16:34 | 19.05894 | -104.38572 | 11006 ft | 176 kts | 118° |
| 2026-04-28 16:34 | 19.05337 | -104.37431 | 11006 ft | 176 kts | 118° |
| 2026-04-28 16:34 | 19.04770 | -104.36270 | 11006 ft | 176 kts | 118° |
| 2026-04-28 16:34 | 19.04214 | -104.35131 | 11006 ft | 176 kts | 118° |
| 2026-04-28 16:35 | 19.03650 | -104.33976 | 11006 ft | 176 kts | 118° |
| 2026-04-28 16:35 | 19.03090 | -104.32831 | 11006 ft | 177 kts | 118° |
| 2026-04-28 16:35 | 19.02525 | -104.31674 | 11012 ft | 178 kts | 118° |
| 2026-04-28 16:35 | 19.01957 | -104.30514 | 11014 ft | 179 kts | 118° |
| 2026-04-28 16:36 | 19.01387 | -104.29348 | 11015 ft | 179 kts | 118° |
| 2026-04-28 16:36 | 19.00810 | -104.28165 | 11017 ft | 181 kts | 118° |
| 2026-04-28 16:36 | 19.00232 | -104.26989 | 11012 ft | 180 kts | 118° |
| 2026-04-28 16:36 | 18.99657 | -104.25808 | 11012 ft | 179 kts | 118° |
| 2026-04-28 16:37 | 18.99090 | -104.24650 | 11011 ft | 178 kts | 118° |
| 2026-04-28 16:37 | 18.98517 | -104.23479 | 11010 ft | 177 kts | 118° |
| 2026-04-28 16:37 | 18.97953 | -104.22328 | 11009 ft | 177 kts | 118° |
| 2026-04-28 16:38 | 18.96821 | -104.20015 | 11008 ft | 177 kts | 118° |
| 2026-04-28 16:38 | 18.96261 | -104.18873 | 11007 ft | 176 kts | 118° |
| 2026-04-28 16:38 | 18.95697 | -104.17720 | 11007 ft | 176 kts | 118° |
| 2026-04-28 16:38 | 18.95135 | -104.16575 | 11007 ft | 176 kts | 118° |
| 2026-04-28 16:39 | 18.94570 | -104.15422 | 11007 ft | 176 kts | 118° |
| 2026-04-28 16:39 | 18.94010 | -104.14280 | 11007 ft | 176 kts | 118° |
| 2026-04-28 16:39 | 18.93443 | -104.13125 | 11007 ft | 176 kts | 118° |
| 2026-04-28 16:39 | 18.92878 | -104.11973 | 11007 ft | 176 kts | 118° |
| 2026-04-28 16:40 | 18.92318 | -104.10834 | 11007 ft | 176 kts | 118° |
| 2026-04-28 16:40 | 18.91758 | -104.09692 | 11007 ft | 176 kts | 118° |
| 2026-04-28 16:40 | 18.91193 | -104.08541 | 11007 ft | 176 kts | 118° |
| 2026-04-28 16:40 | 18.90817 | -104.07776 | 11007 ft | 176 kts | 118° |
| 2026-04-28 16:41 | 18.90250 | -104.06620 | 11007 ft | 176 kts | 118° |
| 2026-04-28 16:41 | 18.89506 | -104.05106 | 11007 ft | 176 kts | 118° |
| 2026-04-28 16:41 | 18.89131 | -104.04343 | 11007 ft | 176 kts | 118° |
| 2026-04-28 16:41 | 18.88566 | -104.03193 | 11007 ft | 176 kts | 118° |
| 2026-04-28 16:42 | 18.87999 | -104.02039 | 11007 ft | 176 kts | 118° |
| 2026-04-28 16:42 | 18.87438 | -104.00898 | 11007 ft | 176 kts | 118° |
| 2026-04-28 16:42 | 18.86877 | -103.99758 | 11007 ft | 176 kts | 118° |
| 2026-04-28 16:42 | 18.86311 | -103.98607 | 11007 ft | 176 kts | 118° |
| 2026-04-28 16:43 | 18.85753 | -103.97470 | 11007 ft | 176 kts | 118° |
| 2026-04-28 16:43 | 18.85185 | -103.96318 | 11007 ft | 176 kts | 118° |
| 2026-04-28 16:43 | 18.84619 | -103.95166 | 11013 ft | 177 kts | 118° |
| 2026-04-28 16:43 | 18.84054 | -103.94018 | 11009 ft | 178 kts | 118° |
| 2026-04-28 16:44 | 18.83482 | -103.92857 | 11013 ft | 178 kts | 118° |
| 2026-04-28 16:44 | 18.82913 | -103.91700 | 11009 ft | 178 kts | 118° |
| 2026-04-28 16:44 | 18.82335 | -103.90526 | 11012 ft | 179 kts | 118° |
| 2026-04-28 16:44 | 18.81767 | -103.89374 | 11014 ft | 178 kts | 118° |
| 2026-04-28 16:45 | 18.81188 | -103.88200 | 11012 ft | 179 kts | 118° |
| 2026-04-28 16:45 | 18.80616 | -103.87037 | 11011 ft | 179 kts | 118° |
| 2026-04-28 16:45 | 18.80043 | -103.85874 | 11015 ft | 180 kts | 118° |
| 2026-04-28 16:45 | 18.79463 | -103.84698 | 11016 ft | 180 kts | 118° |
| 2026-04-28 16:46 | 18.78890 | -103.83536 | 11015 ft | 180 kts | 118° |
| 2026-04-28 16:46 | 18.78311 | -103.82360 | 11016 ft | 179 kts | 118° |
| 2026-04-28 16:46 | 18.77732 | -103.81187 | 11015 ft | 179 kts | 118° |
| 2026-04-28 16:46 | 18.77161 | -103.80033 | 11012 ft | 179 kts | 118° |
| 2026-04-28 16:47 | 18.76584 | -103.78861 | 11013 ft | 179 kts | 118° |
| 2026-04-28 16:47 | 18.76006 | -103.77690 | 11016 ft | 179 kts | 118° |
| 2026-04-28 16:47 | 18.75434 | -103.76531 | 11015 ft | 179 kts | 118° |
| 2026-04-28 16:47 | 18.74860 | -103.75368 | 11015 ft | 180 kts | 118° |
| 2026-04-28 16:48 | 18.74279 | -103.74191 | 11014 ft | 180 kts | 118° |
| 2026-04-28 16:48 | 18.73701 | -103.73021 | 11015 ft | 180 kts | 118° |
| 2026-04-28 16:48 | 18.73123 | -103.71853 | 11013 ft | 180 kts | 118° |
| 2026-04-28 16:48 | 18.72551 | -103.70695 | 11012 ft | 179 kts | 118° |
| 2026-04-28 16:49 | 18.71973 | -103.69524 | 11015 ft | 178 kts | 118° |
| 2026-04-28 16:49 | 18.71398 | -103.68360 | 11011 ft | 178 kts | 118° |
| 2026-04-28 16:49 | 18.70831 | -103.67215 | 11012 ft | 178 kts | 118° |
| 2026-04-28 16:49 | 18.70256 | -103.66053 | 11010 ft | 178 kts | 118° |
| 2026-04-28 16:50 | 18.69689 | -103.64905 | 11010 ft | 178 kts | 118° |
| 2026-04-28 16:50 | 18.69117 | -103.63749 | 11011 ft | 178 kts | 118° |
| 2026-04-28 16:50 | 18.68547 | -103.62598 | 11010 ft | 178 kts | 118° |
| 2026-04-28 16:50 | 18.67973 | -103.61438 | 11013 ft | 178 kts | 118° |
| 2026-04-28 16:51 | 18.67397 | -103.60276 | 11014 ft | 178 kts | 118° |
| 2026-04-28 16:51 | 18.66824 | -103.59118 | 11012 ft | 179 kts | 118° |
| 2026-04-28 16:51 | 18.66250 | -103.57957 | 11012 ft | 179 kts | 118° |
| 2026-04-28 16:51 | 18.65670 | -103.56786 | 11016 ft | 180 kts | 118° |
| 2026-04-28 16:52 | 18.65093 | -103.55623 | 11015 ft | 180 kts | 118° |
| 2026-04-28 16:52 | 18.64507 | -103.54440 | 11016 ft | 180 kts | 118° |
| 2026-04-28 16:52 | 18.63929 | -103.53274 | 11016 ft | 180 kts | 118° |
| 2026-04-28 16:52 | 18.63352 | -103.52111 | 11016 ft | 180 kts | 118° |
| 2026-04-28 16:53 | 18.62767 | -103.50930 | 11015 ft | 180 kts | 118° |
| 2026-04-28 16:53 | 18.62194 | -103.49772 | 11015 ft | 180 kts | 118° |
| 2026-04-28 16:53 | 18.61610 | -103.48596 | 11012 ft | 179 kts | 118° |
| 2026-04-28 16:53 | 18.61035 | -103.47437 | 11016 ft | 180 kts | 118° |
| 2026-04-28 16:54 | 18.60452 | -103.46263 | 11016 ft | 180 kts | 118° |
| 2026-04-28 16:54 | 18.59875 | -103.45100 | 11015 ft | 180 kts | 118° |
| 2026-04-28 16:54 | 18.59289 | -103.43920 | 11015 ft | 180 kts | 118° |
| 2026-04-28 16:54 | 18.58716 | -103.42765 | 11016 ft | 180 kts | 118° |
| 2026-04-28 16:55 | 18.58134 | -103.41591 | 11015 ft | 179 kts | 118° |
| 2026-04-28 16:55 | 18.57559 | -103.40436 | 11015 ft | 180 kts | 118° |
| 2026-04-28 16:55 | 18.56978 | -103.39265 | 11013 ft | 179 kts | 118° |
| 2026-04-28 16:55 | 18.56396 | -103.38096 | 11014 ft | 180 kts | 118° |
| 2026-04-28 16:56 | 18.55822 | -103.36937 | 11015 ft | 180 kts | 118° |
| 2026-04-28 16:56 | 18.55239 | -103.35767 | 11015 ft | 179 kts | 118° |
| 2026-04-28 16:56 | 18.54665 | -103.34611 | 11016 ft | 180 kts | 118° |
| 2026-04-28 16:56 | 18.54082 | -103.33439 | 11012 ft | 179 kts | 118° |
| 2026-04-28 16:57 | 18.53507 | -103.32282 | 11018 ft | 181 kts | 118° |
| 2026-04-28 16:57 | 18.52919 | -103.31101 | 11015 ft | 181 kts | 118° |
| 2026-04-28 16:57 | 18.52334 | -103.29924 | 11010 ft | 181 kts | 118° |
| 2026-04-28 16:57 | 18.51754 | -103.28757 | 11020 ft | 181 kts | 118° |
| 2026-04-28 16:58 | 18.51166 | -103.27575 | 11015 ft | 182 kts | 118° |
| 2026-04-28 16:58 | 18.50582 | -103.26404 | 11016 ft | 182 kts | 118° |
| 2026-04-28 16:58 | 18.49987 | -103.25210 | 11015 ft | 182 kts | 118° |
| 2026-04-28 16:58 | 18.49402 | -103.24033 | 11014 ft | 182 kts | 118° |
| 2026-04-28 16:59 | 18.48812 | -103.22848 | 11012 ft | 181 kts | 118° |
| 2026-04-28 16:59 | 18.48229 | -103.21682 | 11010 ft | 182 kts | 118° |
| 2026-04-28 16:59 | 18.47641 | -103.20498 | 11013 ft | 180 kts | 119° |
| 2026-04-28 16:59 | 18.47060 | -103.19333 | 11010 ft | 180 kts | 118° |
| 2026-04-28 17:00 | 18.46483 | -103.18175 | 11009 ft | 180 kts | 118° |
| 2026-04-28 17:00 | 18.45902 | -103.17010 | 11007 ft | 178 kts | 118° |
| 2026-04-28 17:00 | 18.45330 | -103.15862 | 11006 ft | 177 kts | 118° |
| 2026-04-28 17:00 | 18.44751 | -103.14702 | 11007 ft | 179 kts | 118° |
| 2026-04-28 17:01 | 18.44175 | -103.13548 | 11010 ft | 180 kts | 118° |
| 2026-04-28 17:01 | 18.43589 | -103.12374 | 11006 ft | 180 kts | 118° |
| 2026-04-28 17:01 | 18.43011 | -103.11214 | 11006 ft | 179 kts | 118° |
| 2026-04-28 17:01 | 18.42430 | -103.10052 | 11006 ft | 178 kts | 118° |
| 2026-04-28 17:02 | 18.41860 | -103.08908 | 11014 ft | 178 kts | 118° |
| 2026-04-28 17:02 | 18.41466 | -103.08121 | 11006 ft | 180 kts | 118° |
| 2026-04-28 17:02 | 18.40694 | -103.06575 | 11005 ft | 178 kts | 118° |
| 2026-04-28 17:02 | 18.40122 | -103.05427 | 11005 ft | 177 kts | 118° |
| 2026-04-28 17:03 | 18.38972 | -103.03126 | 11007 ft | 179 kts | 118° |
| 2026-04-28 17:03 | 18.38395 | -103.01971 | 11009 ft | 179 kts | 118° |
| 2026-04-28 17:03 | 18.37819 | -103.00820 | 11011 ft | 179 kts | 118° |
| 2026-04-28 17:04 | 18.36651 | -102.98486 | 11008 ft | 180 kts | 118° |
| 2026-04-28 17:04 | 18.36068 | -102.97315 | 11011 ft | 180 kts | 118° |
| 2026-04-28 17:05 | 18.34906 | -102.94997 | 11007 ft | 178 kts | 118° |
| 2026-04-28 17:05 | 18.34331 | -102.93848 | 11010 ft | 179 kts | 118° |
| 2026-04-28 17:05 | 18.33751 | -102.92689 | 11005 ft | 179 kts | 118° |
| 2026-04-28 17:06 | 18.32587 | -102.90364 | 11009 ft | 179 kts | 118° |
| 2026-04-28 17:06 | 18.32013 | -102.89216 | 11006 ft | 178 kts | 118° |
| 2026-04-28 17:06 | 18.30847 | -102.86890 | 11008 ft | 179 kts | 118° |
| 2026-04-28 17:07 | 18.30270 | -102.85736 | 11008 ft | 179 kts | 118° |
| 2026-04-28 17:07 | 18.29694 | -102.84589 | 11006 ft | 179 kts | 118° |
| 2026-04-28 17:07 | 18.29110 | -102.83424 | 11008 ft | 179 kts | 118° |
| 2026-04-28 17:07 | 18.28535 | -102.82276 | 11007 ft | 178 kts | 118° |
| 2026-04-28 17:08 | 18.27954 | -102.81118 | 11007 ft | 178 kts | 118° |
| 2026-04-28 17:08 | 18.27378 | -102.79970 | 11006 ft | 179 kts | 118° |
| 2026-04-28 17:08 | 18.26801 | -102.78820 | 11006 ft | 178 kts | 118° |
| 2026-04-28 17:08 | 18.26218 | -102.77657 | 11008 ft | 179 kts | 118° |
| 2026-04-28 17:09 | 18.25642 | -102.76509 | 11007 ft | 179 kts | 118° |
| 2026-04-28 17:09 | 18.25062 | -102.75354 | 11005 ft | 178 kts | 118° |
| 2026-04-28 17:09 | 18.24480 | -102.74195 | 11008 ft | 178 kts | 118° |
| 2026-04-28 17:09 | 18.23904 | -102.73046 | 11006 ft | 178 kts | 118° |
| 2026-04-28 17:10 | 18.23319 | -102.71883 | 11008 ft | 179 kts | 118° |
| 2026-04-28 17:10 | 18.22743 | -102.70735 | 11008 ft | 179 kts | 118° |
| 2026-04-28 17:10 | 18.22157 | -102.69570 | 11009 ft | 179 kts | 118° |
| 2026-04-28 17:10 | 18.21578 | -102.68419 | 11009 ft | 179 kts | 118° |
| 2026-04-28 17:11 | 18.20992 | -102.67252 | 11006 ft | 179 kts | 118° |
| 2026-04-28 17:11 | 18.20415 | -102.66103 | 11008 ft | 179 kts | 118° |
| 2026-04-28 17:11 | 18.19829 | -102.64938 | 11008 ft | 179 kts | 118° |
| 2026-04-28 17:11 | 18.19251 | -102.63790 | 11009 ft | 179 kts | 118° |
| 2026-04-28 17:12 | 18.18664 | -102.62622 | 11007 ft | 179 kts | 118° |
| 2026-04-28 17:12 | 18.18085 | -102.61470 | 11006 ft | 179 kts | 118° |
| 2026-04-28 17:12 | 18.17503 | -102.60314 | 11009 ft | 180 kts | 119° |
| 2026-04-28 17:12 | 18.16912 | -102.59139 | 11005 ft | 180 kts | 118° |
| 2026-04-28 17:13 | 18.16330 | -102.57983 | 11003 ft | 179 kts | 118° |
| 2026-04-28 17:13 | 18.15753 | -102.56836 | 11003 ft | 178 kts | 118° |
| 2026-04-28 17:13 | 18.15169 | -102.55677 | 11004 ft | 178 kts | 118° |
| 2026-04-28 17:13 | 18.14591 | -102.54531 | 11006 ft | 179 kts | 119° |
| 2026-04-28 17:14 | 18.14012 | -102.53380 | 11003 ft | 179 kts | 118° |
| 2026-04-28 17:14 | 18.13429 | -102.52222 | 11003 ft | 178 kts | 118° |
| 2026-04-28 17:14 | 18.12849 | -102.51073 | 11003 ft | 179 kts | 118° |
| 2026-04-28 17:14 | 18.12262 | -102.49908 | 11004 ft | 180 kts | 118° |
| 2026-04-28 17:15 | 18.11679 | -102.48751 | 11004 ft | 179 kts | 118° |
| 2026-04-28 17:15 | 18.11095 | -102.47590 | 11004 ft | 178 kts | 118° |
| 2026-04-28 17:15 | 18.10519 | -102.46450 | 11007 ft | 179 kts | 118° |
| 2026-04-28 17:15 | 18.09938 | -102.45298 | 11004 ft | 178 kts | 118° |
| 2026-04-28 17:16 | 18.09354 | -102.44140 | 11004 ft | 178 kts | 118° |
| 2026-04-28 17:16 | 18.08771 | -102.42986 | 11005 ft | 178 kts | 118° |
| 2026-04-28 17:16 | 18.08187 | -102.41828 | 11003 ft | 179 kts | 118° |
| 2026-04-28 17:16 | 18.07612 | -102.40687 | 11005 ft | 179 kts | 118° |
| 2026-04-28 17:17 | 18.07025 | -102.39524 | 11003 ft | 179 kts | 119° |
| 2026-04-28 17:17 | 18.06438 | -102.38364 | 11003 ft | 179 kts | 118° |
| 2026-04-28 17:17 | 18.05861 | -102.37219 | 11005 ft | 179 kts | 119° |
| 2026-04-28 17:17 | 18.05276 | -102.36060 | 11005 ft | 179 kts | 118° |
| 2026-04-28 17:18 | 18.04689 | -102.34900 | 11005 ft | 179 kts | 118° |
| 2026-04-28 17:18 | 18.04111 | -102.33757 | 11003 ft | 178 kts | 118° |
| 2026-04-28 17:18 | 18.03535 | -102.32618 | 11003 ft | 178 kts | 118° |
| 2026-04-28 17:18 | 18.02951 | -102.31461 | 11003 ft | 178 kts | 118° |
| 2026-04-28 17:19 | 18.02376 | -102.30322 | 11003 ft | 178 kts | 118° |
| 2026-04-28 17:19 | 18.01792 | -102.29169 | 11004 ft | 178 kts | 119° |
| 2026-04-28 17:19 | 18.01210 | -102.28018 | 11003 ft | 178 kts | 118° |
| 2026-04-28 17:19 | 18.00634 | -102.26880 | 11002 ft | 178 kts | 119° |
| 2026-04-28 17:20 | 18.00054 | -102.25732 | 11005 ft | 178 kts | 118° |
| 2026-04-28 17:20 | 17.99665 | -102.24964 | 11006 ft | 179 kts | 118° |
| 2026-04-28 17:20 | 17.98876 | -102.23406 | 10706 ft | 183 kts | 118° |
| 2026-04-28 17:20 | 17.98280 | -102.22229 | 10401 ft | 182 kts | 119° |
| 2026-04-28 17:21 | 17.97684 | -102.21053 | 10097 ft | 180 kts | 118° |
| 2026-04-28 17:21 | 17.97103 | -102.19906 | 9805 ft | 179 kts | 118° |
| 2026-04-28 17:21 | 17.96519 | -102.18752 | 9533 ft | 175 kts | 119° |
| 2026-04-28 17:22 | 17.95399 | -102.16541 | 9188 ft | 173 kts | 119° |
| 2026-04-28 17:22 | 17.94824 | -102.15407 | 9012 ft | 176 kts | 119° |
| 2026-04-28 17:22 | 17.94252 | -102.14278 | 8846 ft | 177 kts | 119° |
| 2026-04-28 17:23 | 17.93089 | -102.11983 | 8497 ft | 178 kts | 119° |
| 2026-04-28 17:23 | 17.92505 | -102.10831 | 8321 ft | 177 kts | 119° |
| 2026-04-28 17:23 | 17.91924 | -102.09687 | 8147 ft | 177 kts | 118° |
| 2026-04-28 17:23 | 17.91348 | -102.08551 | 7973 ft | 177 kts | 119° |
| 2026-04-28 17:24 | 17.90766 | -102.07403 | 7798 ft | 177 kts | 118° |
| 2026-04-28 17:24 | 17.90191 | -102.06269 | 7625 ft | 177 kts | 119° |
| 2026-04-28 17:24 | 17.89606 | -102.05117 | 7449 ft | 177 kts | 119° |
| 2026-04-28 17:24 | 17.89031 | -102.03984 | 7276 ft | 177 kts | 119° |
| 2026-04-28 17:25 | 17.88645 | -102.03223 | 7156 ft | 177 kts | 119° |
| 2026-04-28 17:25 | 17.87479 | -102.00928 | 6809 ft | 177 kts | 119° |
| 2026-04-28 17:25 | 17.86905 | -101.99797 | 6635 ft | 177 kts | 119° |
| 2026-04-28 17:26 | 17.86322 | -101.98650 | 6451 ft | 177 kts | 119° |
| 2026-04-28 17:26 | 17.85746 | -101.97515 | 6288 ft | 177 kts | 119° |
| 2026-04-28 17:26 | 17.85161 | -101.96364 | 6107 ft | 177 kts | 119° |
| 2026-04-28 17:26 | 17.84585 | -101.95232 | 5939 ft | 177 kts | 119° |
| 2026-04-28 17:27 | 17.84002 | -101.94085 | 5764 ft | 177 kts | 119° |
| 2026-04-28 17:27 | 17.83423 | -101.92945 | 5598 ft | 179 kts | 119° |
| 2026-04-28 17:27 | 17.82833 | -101.91786 | 5417 ft | 179 kts | 119° |
| 2026-04-28 17:27 | 17.82241 | -101.90624 | 5243 ft | 180 kts | 119° |
| 2026-04-28 17:28 | 17.81658 | -101.89477 | 5100 ft | 179 kts | 119° |
| 2026-04-28 17:28 | 17.80522 | -101.87244 | 5013 ft | 169 kts | 119° |
| 2026-04-28 17:28 | 17.79971 | -101.86162 | 4996 ft | 166 kts | 119° |
| 2026-04-28 17:29 | 17.79430 | -101.85098 | 4997 ft | 167 kts | 119° |
| 2026-04-28 17:29 | 17.78879 | -101.84017 | 4998 ft | 168 kts | 119° |
| 2026-04-28 17:29 | 17.78326 | -101.82932 | 4999 ft | 168 kts | 119° |
| 2026-04-28 17:30 | 17.77226 | -101.80771 | 5000 ft | 169 kts | 119° |
| 2026-04-28 17:30 | 17.76114 | -101.78589 | 5000 ft | 169 kts | 119° |
| 2026-04-28 17:30 | 17.75564 | -101.77513 | 5000 ft | 169 kts | 119° |
| 2026-04-28 17:31 | 17.75003 | -101.76412 | 5000 ft | 169 kts | 119° |
| 2026-04-28 17:31 | 17.73901 | -101.74249 | 5000 ft | 169 kts | 119° |
| 2026-04-28 17:32 | 17.72792 | -101.72075 | 5000 ft | 169 kts | 119° |
| 2026-04-28 17:32 | 17.72232 | -101.70979 | 5000 ft | 169 kts | 119° |
| 2026-04-28 17:32 | 17.71679 | -101.69895 | 5000 ft | 169 kts | 119° |
| 2026-04-28 17:32 | 17.71121 | -101.68802 | 5000 ft | 169 kts | 119° |
| 2026-04-28 17:33 | 17.70571 | -101.67724 | 5000 ft | 169 kts | 119° |
| 2026-04-28 17:33 | 17.70012 | -101.66631 | 5000 ft | 169 kts | 119° |
| 2026-04-28 17:33 | 17.69448 | -101.65555 | 4999 ft | 169 kts | 122° |
| 2026-04-28 17:33 | 17.69006 | -101.64874 | 4999 ft | 169 kts | 128° |
| 2026-04-28 17:34 | 17.67961 | -101.63680 | 4873 ft | 168 kts | 139° |
| 2026-04-28 17:34 | 17.67028 | -101.62925 | 4720 ft | 168 kts | 147° |
| 2026-04-28 17:34 | 17.66011 | -101.62328 | 4571 ft | 169 kts | 155° |
| 2026-04-28 17:34 | 17.64905 | -101.61883 | 4421 ft | 170 kts | 164° |
| 2026-04-28 17:35 | 17.63765 | -101.61843 | 4258 ft | 168 kts | 199° |
| 2026-04-28 17:35 | 17.62759 | -101.62372 | 4096 ft | 155 kts | 213° |
| 2026-04-28 17:35 | 17.61914 | -101.63032 | 3923 ft | 146 kts | 218° |
| 2026-04-28 17:35 | 17.61126 | -101.63674 | 3635 ft | 145 kts | 218° |
| 2026-04-28 17:36 | 17.60330 | -101.64323 | 3354 ft | 143 kts | 218° |
| 2026-04-28 17:36 | 17.59508 | -101.64881 | 3062 ft | 140 kts | 198° |
| 2026-04-28 17:36 | 17.58571 | -101.64863 | 2771 ft | 139 kts | 155° |
| 2026-04-28 17:36 | 17.58043 | -101.64060 | 2477 ft | 140 kts | 95° |
| 2026-04-28 17:37 | 17.58346 | -101.63112 | 2194 ft | 141 kts | 49° |
| 2026-04-28 17:37 | 17.58935 | -101.62305 | 1918 ft | 139 kts | 68° |
| 2026-04-28 17:37 | 17.59112 | -101.61320 | 1647 ft | 139 kts | 82° |
| 2026-04-28 17:37 | 17.59236 | -101.60313 | 1373 ft | 139 kts | 84° |
| 2026-04-28 17:38 | 17.59331 | -101.59370 | 1360 ft | 122 kts | 85° |
| 2026-04-28 17:38 | 17.59410 | -101.58501 | 1466 ft | 112 kts | 85° |
| 2026-04-28 17:38 | 17.59465 | -101.57747 | 1692 ft | 97 kts | 90° |
| 2026-04-28 17:38 | 17.59477 | -101.57017 | 1703 ft | 105 kts | 90° |
| 2026-04-28 17:39 | 17.59505 | -101.56254 | 1688 ft | 103 kts | 89° |
| 2026-04-28 17:39 | 17.59531 | -101.55519 | 1690 ft | 99 kts | 89° |
| 2026-04-28 17:39 | 17.59620 | -101.53966 | 1369 ft | 111 kts | 83° |
| 2026-04-28 17:40 | 17.59738 | -101.53178 | 1199 ft | 108 kts | 81° |
| 2026-04-28 17:40 | 17.59858 | -101.52417 | 1055 ft | 100 kts | 83° |
| 2026-04-28 17:40 | 17.59944 | -101.51727 | 925 ft | 100 kts | 84° |
| 2026-04-28 17:40 | 17.60025 | -101.50969 | 703 ft | 106 kts | 85° |
| 2026-04-28 17:41 | 17.60089 | -101.50209 | 487 ft | 105 kts | 86° |
| 2026-04-28 17:41 | 17.60153 | -101.49458 | 402 ft | 95 kts | 85° |
| 2026-04-28 17:41 | 17.60211 | -101.48800 | 403 ft | 86 kts | 86° |
| 2026-04-28 17:41 | 17.60227 | -101.48173 | 265 ft | 84 kts | 92° |
| 2026-04-28 17:42 | 17.60201 | -101.47577 | 152 ft | 78 kts | 94° |
| 2026-04-28 17:42 | 17.60192 | -101.47213 | 50 ft | 73 kts | 93° |
| 2026-04-28 17:42 | 17.60175 | -101.46651 | 20 ft | 40 kts | 93° |
| 2026-04-28 17:42 | 17.60160 | -101.46392 | 20 ft | 32 kts | 84° |
| 2026-04-28 17:43 | 17.60167 | -101.46182 | 23 ft | 25 kts | 90° |
| 2026-04-28 17:43 | 17.60229 | -101.46073 | 23 ft | 17 kts | 318° |
| 2026-04-28 17:43 | 17.60290 | -101.46176 | 22 ft | 17 kts | 301° |
| 2026-04-28 17:43 | 17.60361 | -101.46277 | 22 ft | 17 kts | 312° |
| 2026-04-28 17:44 | 17.60466 | -101.46275 | 22 ft | 17 kts | 39° |
| 2026-04-28 17:44 | 17.60478 | -101.46162 | 22 ft | 15 kts | 89° |
| 2026-04-28 17:44 | 17.60511 | -101.46144 | 22 ft | 0 kts | 274° |